Time;durP1;ratioP1;P1;durP2;ratioP2;P2;SDS_P1;SDS_P2;PMS_P1;PMS_P2;Temp;Humidity;BMP_temperature;BMP_pressure;BME280_temperature;BME280_humidity;BME280_pressure;Samples;Min_cycle;Max_cycle;Signal;HPM_P1;HPM_P2
2021/03/31 00:09:45;;;;;;;;;;;;;;;;;;;;;
2021/03/31 02:17:09;;;;;;;21.53;8.70;;;7.10;64.70;;;;;;4635930;30;20467;-85
2021/03/31 02:23:42;;;;;;;18.60;8.13;;;6.90;70.30;;;;;;4776580;30;20468;-85
2021/03/31 02:54:31;;;;;;;;;;;;;;;;;;;;;
2021/03/31 02:57:35;;;;;;;;;;;;;;;;;;;;;
2021/03/31 03:00:04;;;;;;;17.03;7.20;;;7.30;59.60;;;;;;4852924;29;20460;-79
2021/03/31 03:03:04;;;;;;;18.23;8.43;;;7.30;61.30;;;;;;4857201;29;20534;-84
2021/03/31 03:09:06;;;;;;;15.40;7.50;;;7.60;55.40;;;;;;4766382;30;20530;-78
2021/03/31 03:11:33;;;;;;;18.00;7.80;;;7.60;55.00;;;;;;4846936;29;20469;-78
2021/03/31 03:17:52;;;;;;;18.43;7.27;;;8.00;49.60;;;;;;4704273;29;20511;-84
2021/03/31 03:24:06;;;;;;;17.13;7.90;;;7.70;50.30;;;;;;4741124;29;20510;-85
2021/03/31 03:27:05;;;;;;;20.80;8.03;;;7.50;52.20;;;;;;4788097;29;20515;-84
2021/03/31 03:29:58;;;;;;;;;;;;;;;;;;;;;
2021/03/31 03:35:49;;;;;;;15.97;7.60;;;7.00;64.70;;;;;;4761453;30;20826;-84
2021/03/31 03:43:44;;;;;;;;;;;;;;;;;;;;;
2021/03/31 03:46:43;;;;;;;33.07;17.13;;;6.20;74.70;;;;;;4760507;30;20567;-86
2021/03/31 03:52:36;;;;;;;16.70;8.80;;;6.00;90.40;;;;;;4714134;30;20976;-85
2021/03/31 03:55:10;;;;;;;20.20;8.97;;;6.10;91.70;;;;;;4739459;30;21000;-85
2021/03/31 03:57:51;;;;;;;24.00;10.10;;;6.20;90.90;;;;;;4758730;30;20461;-84
2021/03/31 04:00:22;;;;;;;17.83;8.77;;;6.40;89.40;;;;;;4769120;30;20479;-84
2021/03/31 04:02:52;;;;;;;19.60;9.40;;;6.40;85.10;;;;;;4767806;30;20493;-83
2021/03/31 04:05:58;;;;;;;;;;;;;;;;;;;;;
2021/03/31 04:08:29;;;;;;;17.93;8.07;;;6.70;71.10;;;;;;4746013;30;20827;-83
2021/03/31 04:11:05;;;;;;;17.03;8.33;;;6.90;64.30;;;;;;4823481;29;20456;-85
2021/03/31 04:13:43;;;;;;;19.27;8.13;;;7.00;59.40;;;;;;4844860;29;20560;-85
2021/03/31 04:16:23;;;;;;;;;;;;;;;;;;;;;
2021/03/31 04:19:32;;;;;;;16.03;8.60;;;7.00;56.80;;;;;;4835022;29;20952;-83
2021/03/31 04:22:00;;;;;;;21.13;9.83;;;7.10;56.40;;;;;;4806763;29;20485;-81
2021/03/31 04:24:29;;;;;;;17.80;9.17;;;6.90;56.40;;;;;;4864825;29;20546;-86
2021/03/31 04:27:06;;;;;;;17.63;9.00;;;7.00;56.80;;;;;;4884021;29;20960;-84
2021/03/31 04:29:35;;;;;;;18.17;8.70;;;7.00;58.60;;;;;;4879433;29;20969;-85
2021/03/31 04:32:09;;;;;;;25.07;13.67;;;6.70;63.00;;;;;;4893154;29;20462;-87
2021/03/31 04:34:45;;;;;;;22.20;9.20;;;6.60;68.00;;;;;;4890562;29;20455;-83
2021/03/31 04:37:40;;;;;;;25.93;11.80;;;6.50;71.60;;;;;;4885072;29;20571;-85
2021/03/31 04:44:05;;;;;;;;;;;;;;;;;;;;;
2021/03/31 04:47:16;;;;;;;15.50;8.80;;;6.60;68.30;;;;;;4846735;29;20452;-84
2021/03/31 04:49:58;;;;;;;17.00;8.37;;;6.50;69.40;;;;;;4879011;29;20979;-85
2021/03/31 04:53:13;;;;;;;20.80;9.10;;;6.50;70.60;;;;;;4882026;29;20524;-84
2021/03/31 04:58:38;;;;;;;20.60;8.17;;;6.60;69.30;;;;;;4879852;29;20459;-84
2021/03/31 05:01:27;;;;;;;18.80;7.60;;;6.50;71.60;;;;;;4882590;29;20508;-84
2021/03/31 05:04:15;;;;;;;20.50;8.40;;;6.60;72.30;;;;;;4879084;29;20803;-84
2021/03/31 05:06:45;;;;;;;17.60;8.90;;;6.60;72.40;;;;;;4880171;29;20491;-83
2021/03/31 05:09:24;;;;;;;25.10;9.40;;;6.60;71.10;;;;;;4880547;29;20482;-85
2021/03/31 05:12:08;;;;;;;;;;;;;;;;;;;;;
2021/03/31 05:19:09;;;;;;;;;;;;;;;;;;;;;
2021/03/31 05:21:52;;;;;;;19.03;7.70;;;6.90;60.10;;;;;;4802404;29;20551;-85
2021/03/31 05:24:25;;;;;;;19.87;8.27;;;7.00;58.10;;;;;;4881607;29;21003;-84
2021/03/31 05:27:04;;;;;;;22.97;9.30;;;7.00;59.40;;;;;;4881844;29;20452;-83
2021/03/31 05:29:31;;;;;;;16.50;7.70;;;6.90;58.90;;;;;;4881425;29;20475;-84
2021/03/31 05:32:14;;;;;;;18.90;7.70;;;6.90;57.60;;;;;;4882457;29;20464;-84
2021/03/31 05:34:45;;;;;;;25.73;8.43;;;7.00;56.70;;;;;;4878101;29;20458;-86
2021/03/31 05:37:15;;;;;;;18.13;8.00;;;6.90;56.70;;;;;;4881260;29;20459;-85
2021/03/31 05:39:45;;;;;;;26.63;9.30;;;7.00;57.60;;;;;;4881291;29;21054;-84
2021/03/31 05:42:16;;;;;;;18.07;8.87;;;7.00;59.40;;;;;;4898571;29;20533;-84
2021/03/31 05:44:48;;;;;;;24.93;9.67;;;7.00;60.40;;;;;;4917881;29;20968;-83
2021/03/31 05:47:21;;;;;;;28.03;10.23;;;7.00;62.10;;;;;;4919619;29;20481;-82
2021/03/31 05:49:48;;;;;;;38.10;11.03;;;7.00;62.70;;;;;;4918826;29;21069;-84
2021/03/31 05:52:20;;;;;;;32.97;9.80;;;7.00;63.00;;;;;;4916995;29;20461;-85
2021/03/31 05:55:06;;;;;;;;;;;;;;;;;;;;;
2021/03/31 05:57:41;;;;;;;27.07;10.17;;;7.00;64.00;;;;;;4910901;29;20532;-83
2021/03/31 06:00:10;;;;;;;25.97;10.07;;;7.00;67.50;;;;;;4910766;29;20456;-82
2021/03/31 06:02:37;;;;;;;23.43;9.47;;;7.00;71.00;;;;;;4909485;29;20523;-82
2021/03/31 06:05:05;;;;;;;26.63;10.30;;;7.00;75.40;;;;;;4909757;29;20455;-82
2021/03/31 06:07:31;;;;;;;23.43;10.03;;;6.90;81.20;;;;;;4908801;29;20454;-83
2021/03/31 06:10:14;;;;;;;24.57;9.67;;;7.00;78.50;;;;;;4909738;29;20512;-84
2021/03/31 06:12:43;;;;;;;23.73;10.13;;;7.10;75.50;;;;;;4911377;29;20544;-83
2021/03/31 06:15:23;;;;;;;21.63;9.77;;;7.10;78.00;;;;;;4911630;29;21040;-83
2021/03/31 06:18:12;;;;;;;22.20;10.47;;;7.40;83.60;;;;;;4912724;29;20474;-84
2021/03/31 06:21:03;;;;;;;16.60;8.57;;;7.60;75.80;;;;;;4899457;29;20485;-83
2021/03/31 06:27:38;;;;;;;;;;;;;;;;;;;;;
2021/03/31 06:30:49;;;;;;;;;;;;;;;;;;;;;
2021/03/31 06:33:45;;;;;;;19.10;8.77;;;8.20;68.40;;;;;;4892668;29;20461;-83
2021/03/31 06:36:36;;;;;;;22.83;9.27;;;8.40;60.60;;;;;;4904250;29;20463;-83
2021/03/31 06:39:34;;;;;;;;;;;;;;;;;;;;;
2021/03/31 06:42:41;;;;;;;;;;;;;;;;;;;;;
2021/03/31 06:45:31;;;;;;;26.97;9.57;;;8.90;53.80;;;;;;4900656;29;20455;-83
2021/03/31 06:48:03;;;;;;;23.93;9.33;;;9.00;50.10;;;;;;4903606;29;20509;-83
2021/03/31 06:50:36;;;;;;;25.00;10.87;;;9.20;47.10;;;;;;4896861;29;20553;-82
2021/03/31 06:53:04;;;;;;;24.70;9.50;;;9.40;47.10;;;;;;4909189;29;20885;-82
2021/03/31 06:55:31;;;;;;;20.93;10.23;;;9.40;44.60;;;;;;4900038;29;20459;-82
2021/03/31 06:58:00;;;;;;;25.60;10.80;;;9.70;44.60;;;;;;4902530;29;20494;-82
2021/03/31 07:00:30;;;;;;;24.90;11.90;;;9.70;44.80;;;;;;4908919;29;20462;-79
2021/03/31 07:03:00;;;;;;;24.90;11.60;;;9.80;40.50;;;;;;4907935;29;20510;-82
2021/03/31 07:05:30;;;;;;;21.63;11.23;;;10.10;37.40;;;;;;4905202;29;20494;-82
2021/03/31 07:08:05;;;;;;;24.73;11.30;;;10.10;37.00;;;;;;4916138;29;20471;-82
2021/03/31 07:10:41;;;;;;;30.20;11.33;;;10.20;33.50;;;;;;4913627;29;20459;-83
2021/03/31 07:13:11;;;;;;;20.80;9.80;;;10.30;35.00;;;;;;4906404;29;20556;-82
2021/03/31 07:15:38;;;;;;;27.53;10.43;;;10.50;31.80;;;;;;4898044;29;20454;-82
2021/03/31 07:18:05;;;;;;;23.73;9.97;;;10.60;29.20;;;;;;4877658;29;20495;-83
2021/03/31 07:23:16;;;;;;;26.50;12.40;;;10.80;30.00;;;;;;4912349;29;20228;-82
2021/03/31 07:25:42;;;;;;;20.80;10.90;;;10.90;27.60;;;;;;4916705;29;20484;-81
2021/03/31 07:28:11;;;;;;;37.73;12.53;;;11.00;27.70;;;;;;4916691;29;20546;-82
2021/03/31 07:30:38;;;;;;;23.37;10.70;;;11.10;23.90;;;;;;4916713;29;20456;-82
2021/03/31 07:33:12;;;;;;;28.63;11.97;;;11.40;23.90;;;;;;4916595;29;20889;-82
2021/03/31 07:35:40;;;;;;;28.73;12.00;;;11.50;24.30;;;;;;4915370;29;20514;-82
2021/03/31 07:38:08;;;;;;;22.63;11.60;;;11.60;23.40;;;;;;4916782;29;20462;-82
2021/03/31 07:40:35;;;;;;;36.27;10.90;;;11.70;22.00;;;;;;4916411;29;20557;-82
2021/03/31 07:43:05;;;;;;;24.03;10.93;;;11.80;21.80;;;;;;4915302;29;21075;-82
2021/03/31 07:45:34;;;;;;;28.10;13.43;;;12.00;20.50;;;;;;4915005;29;20861;-82
2021/03/31 07:48:01;;;;;;;24.47;10.47;;;12.00;20.10;;;;;;4907848;29;20518;-81
2021/03/31 07:50:29;;;;;;;24.17;12.20;;;12.20;19.10;;;;;;4896063;29;20466;-82
2021/03/31 07:52:58;;;;;;;24.80;12.23;;;12.40;18.50;;;;;;4903843;29;20837;-82
2021/03/31 07:55:42;;;;;;;23.80;11.60;;;12.50;15.10;;;;;;4909222;29;20502;-81
2021/03/31 07:58:20;;;;;;;22.20;11.40;;;12.60;16.80;;;;;;4901639;29;20466;-82
2021/03/31 08:01:06;;;;;;;37.37;11.93;;;12.80;14.50;;;;;;4924031;29;20468;-82
2021/03/31 08:03:34;;;;;;;24.27;10.93;;;13.00;14.70;;;;;;4932922;29;20903;-82
2021/03/31 08:06:12;;;;;;;30.07;12.93;;;13.20;13.10;;;;;;4933926;29;20463;-81
2021/03/31 08:08:56;;;;;;;21.67;10.70;;;13.30;11.40;;;;;;4934955;29;20955;-82
2021/03/31 08:11:45;;;;;;;28.57;11.60;;;13.50;10.30;;;;;;4935787;29;20527;-82
2021/03/31 08:14:13;;;;;;;25.23;13.37;;;13.90;9.60;;;;;;4936196;29;20463;-82
2021/03/31 08:16:41;;;;;;;26.30;12.13;;;14.30;10.80;;;;;;4936098;29;20547;-83
2021/03/31 08:19:31;;;;;;;29.00;12.47;;;14.60;8.90;;;;;;4935622;29;20528;-82
2021/03/31 08:21:59;;;;;;;30.60;12.77;;;14.90;5.60;;;;;;4935373;29;20582;-83
2021/03/31 08:24:42;;;;;;;25.17;12.20;;;15.30;4.40;;;;;;4935904;29;20460;-84
2021/03/31 08:27:16;;;;;;;24.40;12.43;;;15.80;2.60;;;;;;4934185;29;20484;-83
2021/03/31 08:29:51;;;;;;;26.00;11.77;;;16.10;1.00;;;;;;4935948;29;20824;-84
2021/03/31 08:32:21;;;;;;;26.57;12.53;;;16.60;1.00;;;;;;4936012;29;20539;-85
2021/03/31 08:35:20;;;;;;;29.70;11.80;;;16.80;1.00;;;;;;4934869;29;20453;-83
2021/03/31 08:37:50;;;;;;;33.37;12.43;;;17.20;1.00;;;;;;4858815;29;20445;-84
2021/03/31 08:40:40;;;;;;;28.50;12.73;;;17.40;1.00;;;;;;4910826;29;20457;-85
2021/03/31 08:43:20;;;;;;;;;;;;;;;;;;;;;
2021/03/31 08:49:03;;;;;;;31.27;13.50;;;17.90;1.00;;;;;;4814725;29;20510;-83
2021/03/31 08:51:29;;;;;;;34.30;11.67;;;18.40;1.00;;;;;;4901834;29;20469;-86
2021/03/31 08:54:02;;;;;;;29.60;12.63;;;18.60;1.00;;;;;;4902681;29;20513;-89
2021/03/31 08:56:29;;;;;;;34.77;14.43;;;18.90;1.00;;;;;;4899040;29;20954;-81
2021/03/31 08:58:57;;;;;;;31.50;11.27;;;19.20;1.00;;;;;;4901735;29;20469;-80
2021/03/31 09:01:33;;;;;;;35.77;13.37;;;19.80;1.00;;;;;;4908554;29;20445;-82
2021/03/31 09:04:15;;;;;;;35.30;13.03;;;19.90;1.00;;;;;;4919154;29;20467;-78
2021/03/31 09:06:42;;;;;;;34.87;11.43;;;20.30;1.00;;;;;;4911628;29;20455;-78
2021/03/31 09:09:08;;;;;;;35.80;12.23;;;20.30;1.00;;;;;;4901673;29;20486;-81
2021/03/31 09:11:35;;;;;;;32.53;12.00;;;20.70;1.00;;;;;;4908820;29;20544;-82
2021/03/31 09:14:20;;;;;;;36.30;12.80;;;20.80;1.00;;;;;;4920480;29;20560;-80
2021/03/31 09:16:51;;;;;;;31.30;11.63;;;20.90;1.00;;;;;;4908009;29;20545;-79
2021/03/31 09:19:18;;;;;;;31.90;12.30;;;20.90;1.00;;;;;;4915419;29;20535;-80
2021/03/31 09:21:45;;;;;;;34.03;12.97;;;21.00;1.00;;;;;;4910398;29;20489;-79
2021/03/31 09:24:15;;;;;;;39.97;13.30;;;21.40;1.00;;;;;;4910204;29;20453;-77
2021/03/31 09:26:43;;;;;;;37.50;11.60;;;21.30;1.00;;;;;;4905814;29;20454;-79
2021/03/31 09:29:16;;;;;;;34.80;12.17;;;21.80;1.00;;;;;;4909620;29;20462;-82
2021/03/31 09:31:43;;;;;;;34.70;13.73;;;21.90;1.00;;;;;;4903217;29;20815;-84
2021/03/31 09:34:10;;;;;;;34.90;13.50;;;22.20;1.00;;;;;;4915055;29;20458;-78
2021/03/31 09:36:36;;;;;;;34.00;11.40;;;22.60;1.00;;;;;;4913014;29;20453;-77
2021/03/31 09:39:04;;;;;;;56.47;13.00;;;22.80;1.00;;;;;;4920047;29;20465;-80
2021/03/31 09:46:11;;;;;;;37.63;12.90;;;22.80;1.00;;;;;;4866309;29;20879;-84
2021/03/31 09:48:49;;;;;;;39.73;11.57;;;23.20;1.00;;;;;;4882143;29;20576;-83
2021/03/31 09:52:05;;;;;;;;;;;;;;;;;;;;;
2021/03/31 09:55:36;;;;;;;43.77;13.13;;;23.60;1.00;;;;;;4811387;29;20485;-83
2021/03/31 09:58:45;;;;;;;66.10;17.37;;;24.10;1.00;;;;;;4771290;30;21020;-83
2021/03/31 10:21:00;;;;;;;;;;;;;;;;;;;;;
2021/03/31 10:24:04;;;;;;;37.83;11.30;;;25.60;1.00;;;;;;4849589;29;20487;-83
2021/03/31 10:27:05;;;;;;;37.77;11.73;;;25.60;1.00;;;;;;4787532;30;21008;-82
2021/03/31 10:29:56;;;;;;;39.93;11.83;;;26.30;1.00;;;;;;4770748;29;20462;-82
2021/03/31 10:32:53;;;;;;;40.37;11.57;;;26.30;1.00;;;;;;4820663;29;20480;-82
2021/03/31 10:35:58;;;;;;;46.13;10.50;;;26.50;1.00;;;;;;4767906;30;20465;-81
2021/03/31 10:38:35;;;;;;;;;;;;;;;;;;;;;
2021/03/31 10:54:27;;;;;;;37.33;9.00;;;27.70;1.00;;;;;;4723774;30;20468;-81
2021/03/31 11:00:34;;;;;;;44.27;9.87;;;28.60;1.00;;;;;;4759872;29;20474;-82
2021/03/31 11:03:00;;;;;;;36.83;8.30;;;28.00;1.00;;;;;;4807906;29;20549;-82
2021/03/31 11:05:46;;;;;;;36.20;8.97;;;28.60;1.00;;;;;;4852421;29;20562;-84
2021/03/31 11:08:51;;;;;;;41.70;9.30;;;29.50;1.00;;;;;;4909306;29;20457;-83
2021/03/31 11:18:35;;;;;;;;;;;;;;;;;;;;;
2021/03/31 12:14:10;;;;;;;44.37;7.67;;;30.50;1.00;;;;;;4700470;30;20496;-83
2021/03/31 12:17:32;;;;;;;39.00;6.87;;;31.00;1.00;;;;;;4749910;30;20576;-83
2021/03/31 12:23:34;;;;;;;45.47;6.60;;;32.10;1.00;;;;;;4713027;29;20538;-81
2021/03/31 12:26:01;;;;;;;42.40;5.70;;;33.10;1.00;;;;;;4888798;29;20454;-81
2021/03/31 12:28:27;;;;;;;43.93;5.80;;;32.90;1.00;;;;;;4902800;29;20432;-79
2021/03/31 12:30:55;;;;;;;39.27;5.40;;;33.60;1.00;;;;;;4914920;29;20822;-80
2021/03/31 12:33:21;;;;;;;41.70;11.77;;;33.70;1.00;;;;;;4912285;29;20551;-79
2021/03/31 12:35:48;;;;;;;39.50;8.97;;;33.10;1.00;;;;;;4913606;29;20441;-79
2021/03/31 12:38:14;;;;;;;38.40;5.30;;;32.20;1.00;;;;;;4915418;29;20535;-80
2021/03/31 12:40:40;;;;;;;38.53;5.40;;;32.70;1.00;;;;;;4916146;29;20467;-81
2021/03/31 12:43:08;;;;;;;42.17;5.00;;;33.30;1.00;;;;;;4916880;29;20465;-81
2021/03/31 12:45:34;;;;;;;40.27;4.50;;;32.90;1.00;;;;;;4905847;29;20493;-80
2021/03/31 12:48:02;;;;;;;39.67;6.57;;;32.70;1.00;;;;;;4907080;29;21064;-82
2021/03/31 12:50:28;;;;;;;39.93;6.13;;;31.70;1.00;;;;;;4902269;29;20502;-81
2021/03/31 12:52:57;;;;;;;36.63;4.77;;;31.10;1.00;;;;;;4897958;29;20496;-81
2021/03/31 12:55:27;;;;;;;40.13;5.03;;;31.80;1.00;;;;;;4901038;29;20462;-81
2021/03/31 12:57:57;;;;;;;36.90;4.97;;;30.90;1.00;;;;;;4897619;29;20993;-81
2021/03/31 13:00:25;;;;;;;38.50;4.77;;;31.70;1.00;;;;;;4912899;29;20509;-80
2021/03/31 13:02:51;;;;;;;36.07;4.77;;;32.90;1.00;;;;;;4916840;29;20553;-81
2021/03/31 13:05:19;;;;;;;39.53;5.67;;;34.00;1.00;;;;;;4899351;29;20820;-81
2021/03/31 13:07:45;;;;;;;35.10;4.00;;;33.70;1.00;;;;;;4897686;29;20955;-81
2021/03/31 13:10:13;;;;;;;36.10;4.93;;;33.50;1.00;;;;;;4912058;29;20424;-80
2021/03/31 13:12:43;;;;;;;37.90;4.20;;;34.10;1.00;;;;;;4909912;29;20457;-82
2021/03/31 13:18:00;;;;;;;40.20;5.43;;;33.40;1.00;;;;;;4905523;29;20867;-82
2021/03/31 13:23:15;;;;;;;42.27;5.13;;;32.70;1.00;;;;;;4898862;29;20489;-85
2021/03/31 13:25:43;;;;;;;39.50;4.90;;;32.60;1.00;;;;;;4902905;29;20950;-81
2021/03/31 13:30:55;;;;;;;41.50;4.97;;;33.30;1.00;;;;;;4915856;29;20454;-80
2021/03/31 13:33:24;;;;;;;38.17;5.00;;;33.60;1.00;;;;;;4916326;29;20464;-86
2021/03/31 13:35:57;;;;;;;43.47;5.70;;;34.20;1.00;;;;;;4904433;29;20433;-81
2021/03/31 13:38:28;;;;;;;39.60;6.20;;;34.20;1.00;;;;;;4897470;29;20822;-84
2021/03/31 13:40:54;;;;;;;38.20;6.27;;;34.60;1.00;;;;;;4904503;29;20503;-80
2021/03/31 13:43:20;;;;;;;39.30;6.20;;;34.70;1.00;;;;;;4916720;29;20561;-81
2021/03/31 13:45:47;;;;;;;39.67;6.53;;;34.60;1.00;;;;;;4920273;29;21032;-81
2021/03/31 13:48:15;;;;;;;42.13;6.20;;;34.50;1.00;;;;;;4920552;29;20936;-85
2021/03/31 13:50:42;;;;;;;39.80;6.13;;;34.30;1.00;;;;;;4917702;29;20452;-84
2021/03/31 13:53:14;;;;;;;40.80;6.17;;;34.70;1.00;;;;;;4919477;29;20491;-80
2021/03/31 13:55:43;;;;;;;43.00;6.20;;;34.40;1.00;;;;;;4908102;29;20480;-81
2021/03/31 13:58:09;;;;;;;40.67;5.90;;;34.70;1.00;;;;;;4900777;29;20470;-83
2021/03/31 14:00:36;;;;;;;40.80;6.37;;;34.10;1.00;;;;;;4913612;29;20440;-89
2021/03/31 14:03:03;;;;;;;40.70;7.20;;;34.20;1.00;;;;;;4913406;29;20544;-83
2021/03/31 14:05:29;;;;;;;40.03;7.63;;;33.70;1.00;;;;;;4907165;29;20484;-84
2021/03/31 14:07:56;;;;;;;41.80;8.57;;;33.30;1.00;;;;;;4901202;29;20491;-79
2021/03/31 14:10:23;;;;;;;42.27;8.97;;;33.50;1.00;;;;;;4901357;29;20506;-78
2021/03/31 14:12:53;;;;;;;40.40;8.50;;;33.20;1.00;;;;;;4901788;29;20457;-79
2021/03/31 14:15:21;;;;;;;40.87;8.43;;;33.60;1.00;;;;;;4919825;29;20432;-79
2021/03/31 14:17:48;;;;;;;44.13;8.60;;;32.80;1.00;;;;;;4886474;29;20436;-80
2021/03/31 14:20:17;;;;;;;42.17;8.50;;;33.50;1.00;;;;;;4918490;29;20428;-81
2021/03/31 14:22:44;;;;;;;41.90;8.77;;;33.60;1.00;;;;;;4919682;29;20886;-80
2021/03/31 14:25:12;;;;;;;44.60;9.13;;;34.20;1.00;;;;;;4900919;29;20462;-83
2021/03/31 14:27:40;;;;;;;41.80;8.77;;;34.30;1.00;;;;;;4900229;29;20463;-81
2021/03/31 14:33:02;;;;;;;39.50;6.80;;;32.90;1.00;;;;;;4904677;29;20456;-86
2021/03/31 14:35:31;;;;;;;44.07;8.13;;;32.60;1.00;;;;;;4905047;29;20466;-83
2021/03/31 14:38:05;;;;;;;41.00;8.40;;;31.30;1.00;;;;;;4910247;29;20455;-84
2021/03/31 14:41:13;;;;;;;40.50;9.40;;;30.70;1.00;;;;;;4908738;29;20966;-84
2021/03/31 14:43:46;;;;;;;40.63;10.00;;;29.70;1.00;;;;;;4910181;29;20432;-84
2021/03/31 14:46:12;;;;;;;42.43;9.07;;;29.50;1.00;;;;;;4900730;29;20937;-83
2021/03/31 14:48:39;;;;;;;38.87;8.90;;;29.60;1.00;;;;;;4908447;29;20483;-83
2021/03/31 14:51:10;;;;;;;40.90;9.60;;;29.70;1.00;;;;;;4907662;29;20477;-84
2021/03/31 14:57:08;;;;;;;40.37;10.57;;;30.20;1.00;;;;;;4901374;29;20474;-84
2021/03/31 14:59:43;;;;;;;39.83;8.77;;;30.30;1.00;;;;;;4916698;29;20464;-86
2021/03/31 15:02:12;;;;;;;42.30;10.27;;;30.20;1.00;;;;;;4914439;29;20868;-82
2021/03/31 15:04:39;;;;;;;50.33;13.33;;;29.80;1.00;;;;;;4903167;29;20436;-82
2021/03/31 15:07:07;;;;;;;42.33;11.57;;;30.40;1.00;;;;;;4916974;29;20553;-84
2021/03/31 15:09:37;;;;;;;40.47;10.43;;;30.30;1.00;;;;;;4913274;29;20473;-84
2021/03/31 15:12:04;;;;;;;43.60;10.83;;;30.30;1.00;;;;;;4907721;29;20460;-84
2021/03/31 15:14:31;;;;;;;37.80;8.97;;;30.20;1.00;;;;;;4917060;29;20461;-83
2021/03/31 15:16:58;;;;;;;41.33;10.37;;;30.50;1.00;;;;;;4899237;29;20437;-80
2021/03/31 15:19:29;;;;;;;41.90;10.30;;;30.20;1.00;;;;;;4901215;29;20433;-81
2021/03/31 15:22:13;;;;;;;45.37;12.30;;;30.10;1.00;;;;;;4914057;29;21883;-84
2021/03/31 15:24:40;;;;;;;44.83;12.57;;;30.40;1.00;;;;;;4901170;29;20449;-83
2021/03/31 15:27:12;;;;;;;39.77;9.73;;;30.20;1.00;;;;;;4910028;29;20447;-83
2021/03/31 15:29:50;;;;;;;44.90;10.40;;;30.00;1.00;;;;;;4916730;29;20457;-83
2021/03/31 15:32:17;;;;;;;40.97;11.43;;;30.40;1.00;;;;;;4913519;29;21219;-84
2021/03/31 15:34:44;;;;;;;43.00;10.53;;;30.30;1.00;;;;;;4909446;29;20468;-84
2021/03/31 15:37:12;;;;;;;41.83;10.20;;;30.60;1.00;;;;;;4899921;29;20454;-84
2021/03/31 15:39:38;;;;;;;42.37;10.50;;;30.80;1.00;;;;;;4897797;29;20526;-76
2021/03/31 15:42:05;;;;;;;42.17;10.90;;;30.70;1.00;;;;;;4905470;29;20453;-77
2021/03/31 15:44:32;;;;;;;53.63;11.27;;;30.40;1.00;;;;;;4906554;29;21146;-83
2021/03/31 15:47:04;;;;;;;42.07;11.13;;;30.20;1.00;;;;;;4898617;29;20444;-77
2021/03/31 15:49:32;;;;;;;47.50;12.00;;;29.70;1.00;;;;;;4896145;29;20488;-79
2021/03/31 15:51:58;;;;;;;42.43;12.97;;;29.40;1.00;;;;;;4903180;29;20476;-82
2021/03/31 15:54:25;;;;;;;39.40;9.73;;;29.20;1.00;;;;;;4904532;29;20458;-75
2021/03/31 15:56:52;;;;;;;41.37;13.07;;;28.90;1.00;;;;;;4916576;29;20428;-77
2021/03/31 15:59:18;;;;;;;43.20;11.97;;;28.80;1.00;;;;;;4916428;29;20833;-76
2021/03/31 16:01:45;;;;;;;41.13;9.40;;;28.60;1.00;;;;;;4916348;29;20984;-79
2021/03/31 16:04:13;;;;;;;43.10;11.47;;;28.70;1.00;;;;;;4911856;29;20477;-75
2021/03/31 16:09:21;;;;;;;40.07;10.00;;;28.40;1.00;;;;;;4883528;29;21012;-76
2021/03/31 16:11:49;;;;;;;37.43;10.20;;;28.20;1.00;;;;;;4914100;29;20468;-83
2021/03/31 16:14:15;;;;;;;39.23;9.93;;;28.30;1.00;;;;;;4911489;29;20543;-77
2021/03/31 16:16:42;;;;;;;36.73;9.93;;;28.40;1.00;;;;;;4909404;29;20453;-79
2021/03/31 16:19:08;;;;;;;35.90;9.70;;;28.20;1.00;;;;;;4904315;29;20457;-80
2021/03/31 16:21:35;;;;;;;41.83;12.43;;;28.20;1.00;;;;;;4907641;29;20436;-79
2021/03/31 16:24:02;;;;;;;40.67;9.47;;;27.70;1.00;;;;;;4913994;29;20469;-78
2021/03/31 16:26:28;;;;;;;38.23;10.60;;;27.60;1.00;;;;;;4911651;29;20453;-78
2021/03/31 16:29:06;;;;;;;42.50;12.03;;;27.60;1.00;;;;;;4910224;29;20443;-81
2021/03/31 16:31:32;;;;;;;35.67;11.03;;;27.40;1.00;;;;;;4912297;29;20473;-77
2021/03/31 16:34:00;;;;;;;36.57;11.07;;;27.20;1.00;;;;;;4910742;29;20495;-76
2021/03/31 16:36:29;;;;;;;38.63;11.20;;;27.20;1.00;;;;;;4911700;29;20437;-77
2021/03/31 16:38:55;;;;;;;36.40;9.73;;;27.10;1.00;;;;;;4913364;29;20953;-76
2021/03/31 16:41:22;;;;;;;41.43;10.13;;;26.90;1.00;;;;;;4913217;29;20432;-77
2021/03/31 16:43:49;;;;;;;38.60;9.47;;;27.00;1.00;;;;;;4913524;29;20528;-84
2021/03/31 16:46:17;;;;;;;40.97;8.70;;;26.90;1.00;;;;;;4913497;29;20496;-76
2021/03/31 16:48:44;;;;;;;35.53;9.00;;;26.90;1.00;;;;;;4913600;29;20533;-77
2021/03/31 16:51:11;;;;;;;36.90;8.53;;;27.00;1.00;;;;;;4913399;29;20496;-80
2021/03/31 16:53:37;;;;;;;33.50;8.17;;;27.00;1.00;;;;;;4914357;29;20502;-78
2021/03/31 16:56:04;;;;;;;36.93;9.67;;;27.20;1.00;;;;;;4913643;29;20839;-80
2021/03/31 16:58:32;;;;;;;40.67;7.90;;;27.40;1.00;;;;;;4914683;29;20844;-80
2021/03/31 17:00:58;;;;;;;37.67;9.40;;;27.40;1.00;;;;;;4908848;29;20458;-78
2021/03/31 17:03:24;;;;;;;37.43;10.27;;;27.50;1.00;;;;;;4895439;29;20445;-81
2021/03/31 17:05:50;;;;;;;38.77;9.47;;;27.40;1.00;;;;;;4904939;29;20987;-78
2021/03/31 17:08:17;;;;;;;36.97;8.87;;;27.40;1.00;;;;;;4905564;29;20458;-82
2021/03/31 17:10:47;;;;;;;34.97;9.50;;;27.40;1.00;;;;;;4913237;29;20436;-81
2021/03/31 17:13:14;;;;;;;44.37;11.00;;;27.30;1.00;;;;;;4903775;29;20481;-81
2021/03/31 17:15:41;;;;;;;37.07;10.03;;;27.10;1.00;;;;;;4912985;29;20519;-82
2021/03/31 17:18:07;;;;;;;42.50;10.73;;;26.90;1.00;;;;;;4916417;29;20615;-80
2021/03/31 17:20:34;;;;;;;36.37;10.10;;;26.70;1.00;;;;;;4912121;29;20450;-82
2021/03/31 17:23:01;;;;;;;35.73;9.30;;;26.50;1.00;;;;;;4898312;29;20549;-83
2021/03/31 17:25:28;;;;;;;42.27;11.27;;;26.10;1.00;;;;;;4904856;29;20485;-83
2021/03/31 17:27:56;;;;;;;33.33;10.77;;;25.60;1.00;;;;;;4919604;29;20900;-83
2021/03/31 17:30:23;;;;;;;43.80;13.23;;;25.00;1.00;;;;;;4915430;29;20462;-83
2021/03/31 17:32:53;;;;;;;44.37;11.00;;;24.40;1.00;;;;;;4900296;29;20964;-83
2021/03/31 17:35:21;;;;;;;35.70;8.70;;;23.70;1.00;;;;;;4901232;29;20474;-82
2021/03/31 17:37:53;;;;;;;40.10;10.53;;;23.10;1.00;;;;;;4919165;29;20548;-82
2021/03/31 17:40:21;;;;;;;46.47;10.43;;;22.80;1.00;;;;;;4917534;29;20473;-82
2021/03/31 17:42:54;;;;;;;33.07;12.20;;;22.40;1.00;;;;;;4918923;29;20465;-82
2021/03/31 17:45:23;;;;;;;33.97;11.60;;;21.80;1.00;;;;;;4917384;29;20863;-84
2021/03/31 17:47:51;;;;;;;36.93;12.33;;;21.50;1.00;;;;;;4900206;29;20493;-85
2021/03/31 17:50:20;;;;;;;37.37;11.90;;;21.20;1.00;;;;;;4899206;29;20489;-84
2021/03/31 17:52:51;;;;;;;34.70;11.83;;;20.70;1.00;;;;;;4899749;29;20471;-84
2021/03/31 17:55:23;;;;;;;32.20;10.67;;;20.30;1.00;;;;;;4903095;29;20450;-84
2021/03/31 17:57:49;;;;;;;28.77;10.80;;;19.80;1.00;;;;;;4914692;29;20453;-84
2021/03/31 18:00:22;;;;;;;31.33;11.20;;;19.40;1.00;;;;;;4915146;29;20453;-85
2021/03/31 18:02:49;;;;;;;28.50;12.93;;;18.90;1.00;;;;;;4900339;29;20477;-83
2021/03/31 18:05:17;;;;;;;28.80;11.93;;;18.50;1.00;;;;;;4899137;29;20828;-83
2021/03/31 18:07:45;;;;;;;31.00;11.90;;;18.00;1.00;;;;;;4909547;29;20454;-83
2021/03/31 18:10:15;;;;;;;28.63;12.80;;;17.70;1.00;;;;;;4914379;29;20548;-83
2021/03/31 18:12:50;;;;;;;39.20;16.17;;;17.40;1.00;;;;;;4918190;29;20540;-82
2021/03/31 18:15:20;;;;;;;31.27;13.27;;;17.10;2.10;;;;;;4918278;29;20467;-83
2021/03/31 18:17:46;;;;;;;28.20;13.40;;;16.70;7.10;;;;;;4917688;29;20539;-83
2021/03/31 18:20:14;;;;;;;32.97;13.47;;;16.50;9.70;;;;;;4898740;29;20463;-83
2021/03/31 18:22:43;;;;;;;36.23;15.17;;;16.40;11.20;;;;;;4899414;29;20454;-82
2021/03/31 18:25:11;;;;;;;30.13;14.33;;;16.20;15.20;;;;;;4918429;29;20865;-82
2021/03/31 18:27:38;;;;;;;30.27;13.57;;;15.90;15.60;;;;;;4917779;29;20453;-83
2021/03/31 18:30:06;;;;;;;38.77;17.57;;;15.70;19.80;;;;;;4918031;29;20555;-82
2021/03/31 18:32:35;;;;;;;31.47;14.07;;;15.50;19.70;;;;;;4901013;29;20973;-82
2021/03/31 18:35:03;;;;;;;29.70;15.97;;;15.30;23.60;;;;;;4898539;29;20569;-83
2021/03/31 18:37:30;;;;;;;38.17;14.50;;;15.20;25.10;;;;;;4915132;29;20609;-83
2021/03/31 18:40:04;;;;;;;36.37;14.77;;;15.00;30.10;;;;;;4918103;29;20468;-83
2021/03/31 18:42:36;;;;;;;31.27;15.13;;;14.70;33.80;;;;;;4915609;29;21020;-83
2021/03/31 18:45:04;;;;;;;38.80;14.60;;;14.60;37.30;;;;;;4906604;29;20493;-83
2021/03/31 18:47:30;;;;;;;40.10;16.13;;;14.60;41.30;;;;;;4918007;29;20484;-84
2021/03/31 18:49:58;;;;;;;55.30;17.33;;;14.30;42.30;;;;;;4913146;29;20477;-82
2021/03/31 18:52:25;;;;;;;35.20;15.73;;;14.20;48.20;;;;;;4917207;29;20528;-83
2021/03/31 18:54:54;;;;;;;51.27;19.20;;;14.20;53.10;;;;;;4910609;29;20920;-84
2021/03/31 18:57:22;;;;;;;42.50;15.03;;;14.10;56.40;;;;;;4899011;29;20555;-83
2021/03/31 18:59:48;;;;;;;48.97;18.20;;;13.90;57.00;;;;;;4908031;29;20459;-83
2021/03/31 19:02:16;;;;;;;42.03;17.80;;;13.80;59.80;;;;;;4917773;29;20467;-82
2021/03/31 19:04:43;;;;;;;32.90;17.17;;;13.70;64.30;;;;;;4907811;29;21091;-83
2021/03/31 19:07:11;;;;;;;37.83;18.60;;;13.70;64.40;;;;;;4898335;29;20553;-83